Terminal Aerodrome Forecast
Issued by NWS Wilmington, NC

Home | Current Version | Previous Version | Text Only | Print | Product List | Glossary On
Versions: 1 2 3 4 5 6 7 8 9 10 11 12 13 14 15 16 17 18
000
FTUS42 KILM 050118 AAB
TAFLBT
TAF AMD
KLBT 050118Z 0501/0524 07003KT P6SM SCT080 BKN150
     FM050230 00000KT P6SM SCT150 BKN250
     FM050900 02005KT P6SM SCT005 BKN011
      TEMPO 0510/0514 3SM BR BKN005
     FM051500 04010KT P6SM BKN045
     FM051900 05010KT P6SM VCTS SCT040CB BKN060=

USA.gov is the U.S. government's official web portal to all federal, state and local government web resources and services.